Time;durP1;ratioP1;P1;durP2;ratioP2;P2;SDS_P1;SDS_P2;PMS_P1;PMS_P2;Temp;Humidity;BMP_temperature;BMP_pressure;BME280_temperature;BME280_humidity;BME280_pressure;Samples;Min_cycle;Max_cycle;Signal;HPM_P1;HPM_P2
2023/02/09 00:01:09;;;;;;;12.30;5.25;;;1.60;98.30;;;;;;9951312;28;20137;-67
2023/02/09 00:06:04;;;;;;;15.10;4.65;;;1.50;98.40;;;;;;9941719;28;20505;-69
2023/02/09 00:10:55;;;;;;;8.55;5.00;;;1.50;98.50;;;;;;9942954;28;20045;-68
2023/02/09 00:15:55;;;;;;;12.43;5.65;;;1.60;98.50;;;;;;9942991;28;20134;-67
2023/02/09 00:20:59;;;;;;;11.27;5.03;;;1.50;98.50;;;;;;9942099;28;20066;-67
2023/02/09 00:25:51;;;;;;;14.90;5.88;;;1.50;98.60;;;;;;9939881;28;20106;-67
2023/02/09 00:30:41;;;;;;;16.52;5.82;;;1.40;98.60;;;;;;9942363;28;20027;-67
2023/02/09 00:35:32;;;;;;;14.90;5.75;;;1.30;98.70;;;;;;9942179;28;20511;-68
2023/02/09 00:40:23;;;;;;;13.52;5.72;;;1.30;98.80;;;;;;9942513;28;20105;-68
2023/02/09 00:45:13;;;;;;;13.45;5.32;;;1.30;98.80;;;;;;9941471;28;20023;-67
2023/02/09 00:50:05;;;;;;;11.07;5.18;;;1.30;98.80;;;;;;9941229;28;20019;-68
2023/02/09 00:54:56;;;;;;;10.65;5.00;;;1.20;98.90;;;;;;9935345;28;20160;-68
2023/02/09 00:59:46;;;;;;;13.43;5.32;;;1.10;99.00;;;;;;9952470;28;20122;-68
2023/02/09 01:04:37;;;;;;;14.10;5.93;;;1.10;99.10;;;;;;9960817;28;20070;-69
2023/02/09 01:09:28;;;;;;;13.77;5.18;;;1.10;99.10;;;;;;9929745;28;20513;-68
2023/02/09 01:14:19;;;;;;;11.98;5.88;;;1.10;99.20;;;;;;9948976;28;20062;-69
2023/02/09 01:19:12;;;;;;;12.90;4.95;;;1.10;99.30;;;;;;9948257;28;20078;-67
2023/02/09 01:24:02;;;;;;;10.80;4.95;;;1.10;99.30;;;;;;9948374;28;20042;-68
2023/02/09 01:28:54;;;;;;;10.80;4.88;;;1.10;99.30;;;;;;9949290;28;20039;-67
2023/02/09 01:33:44;;;;;;;12.10;5.20;;;1.00;99.40;;;;;;9948918;28;20033;-67
2023/02/09 01:38:35;;;;;;;11.65;5.18;;;1.00;99.40;;;;;;9948210;28;20109;-67
2023/02/09 01:43:26;;;;;;;12.13;5.32;;;1.10;99.50;;;;;;9948062;28;20037;-68
2023/02/09 01:48:23;;;;;;;11.10;5.95;;;1.00;99.50;;;;;;9950602;28;20420;-68
2023/02/09 01:53:15;;;;;;;11.68;5.30;;;1.00;99.50;;;;;;9920651;28;20030;-67
2023/02/09 01:58:10;;;;;;;9.07;5.20;;;1.00;99.60;;;;;;9969563;28;20027;-68
2023/02/09 02:03:08;;;;;;;11.75;5.60;;;1.00;99.70;;;;;;9957387;28;20077;-69
2023/02/09 02:08:13;;;;;;;10.38;5.28;;;0.90;99.70;;;;;;9946570;28;20502;-67
2023/02/09 02:13:04;;;;;;;10.27;5.57;;;0.70;99.90;;;;;;9934548;28;20050;-67
2023/02/09 02:17:54;;;;;;;11.15;5.82;;;0.70;99.90;;;;;;9946292;28;20038;-68
2023/02/09 02:23:25;;;;;;;16.10;6.93;;;0.60;99.90;;;;;;9949404;28;20098;-67
2023/02/09 02:28:25;;;;;;;12.23;5.93;;;0.40;99.90;;;;;;9846912;28;20509;-68
2023/02/09 02:33:19;;;;;;;11.38;5.28;;;0.50;99.90;;;;;;9950033;28;20030;-67
2023/02/09 02:38:23;;;;;;;11.73;5.43;;;0.50;99.90;;;;;;9949841;28;20034;-68
2023/02/09 02:43:35;;;;;;;9.00;4.95;;;0.50;99.90;;;;;;9950002;28;20561;-68
2023/02/09 02:48:55;;;;;;;11.02;5.10;;;0.50;99.90;;;;;;9948261;28;20413;-67
2023/02/09 02:53:51;;;;;;;10.48;5.55;;;0.50;99.90;;;;;;9938076;28;20022;-68
2023/02/09 02:58:46;;;;;;;13.15;5.07;;;0.30;99.90;;;;;;9958390;28;20027;-67
2023/02/09 03:03:39;;;;;;;12.45;5.43;;;0.40;99.90;;;;;;9955559;28;20065;-68
2023/02/09 03:08:48;;;;;;;15.25;6.05;;;0.30;99.90;;;;;;9948664;28;20027;-70
2023/02/09 03:13:54;;;;;;;15.70;6.32;;;0.30;99.90;;;;;;9948994;28;20051;-69
2023/02/09 03:19:10;;;;;;;13.13;5.68;;;0.30;99.90;;;;;;9949056;28;20023;-68
2023/02/09 03:24:18;;;;;;;8.40;5.55;;;0.40;99.90;;;;;;9946412;28;20047;-68
2023/02/09 03:29:11;;;;;;;14.52;6.47;;;0.30;99.90;;;;;;9945514;28;20056;-69
2023/02/09 03:34:02;;;;;;;13.13;6.15;;;0.30;99.90;;;;;;9945639;28;20031;-68
2023/02/09 03:38:53;;;;;;;10.82;6.15;;;0.20;99.90;;;;;;9948499;28;20023;-67
2023/02/09 03:48:53;;;;;;;14.55;6.15;;;0.20;99.90;;;;;;9948936;28;20429;-68
2023/02/09 03:53:43;;;;;;;13.32;5.75;;;0.20;99.90;;;;;;9947928;28;20088;-69
2023/02/09 03:58:35;;;;;;;10.38;5.30;;;0.20;99.90;;;;;;9956982;28;20409;-69
2023/02/09 04:03:26;;;;;;;18.45;7.45;;;0.20;99.90;;;;;;9946517;28;20169;-69
2023/02/09 04:08:17;;;;;;;11.95;5.57;;;0.20;99.90;;;;;;9941944;28;20034;-69
2023/02/09 04:13:07;;;;;;;12.15;5.63;;;0.10;99.90;;;;;;9944463;28;20158;-69
2023/02/09 04:17:58;;;;;;;13.70;6.40;;;0.20;99.90;;;;;;9943133;28;20023;-68
2023/02/09 04:22:49;;;;;;;15.25;5.57;;;0.10;99.90;;;;;;9946092;28;20129;-70
2023/02/09 04:27:39;;;;;;;15.45;6.20;;;0.00;99.90;;;;;;9944527;28;20023;-70
2023/02/09 04:32:30;;;;;;;9.90;5.93;;;0.00;99.90;;;;;;9943528;28;20099;-69
2023/02/09 04:37:21;;;;;;;11.25;5.63;;;0.00;99.90;;;;;;9943829;28;20031;-69
2023/02/09 04:42:11;;;;;;;13.98;5.45;;;0.00;99.90;;;;;;9944985;28;20039;-69
2023/02/09 04:47:02;;;;;;;14.85;6.80;;;0.00;99.90;;;;;;9910905;28;20050;-69
2023/02/09 04:51:53;;;;;;;9.35;5.45;;;-0.10;99.90;;;;;;9903098;28;20039;-69
2023/02/09 04:56:43;;;;;;;11.85;6.28;;;-0.10;99.90;;;;;;9938779;28;20023;-69
2023/02/09 05:01:34;;;;;;;16.40;6.38;;;-0.20;99.90;;;;;;9931606;28;20043;-69
2023/02/09 05:06:25;;;;;;;14.30;5.47;;;-0.30;99.90;;;;;;9923075;28;20026;-68
2023/02/09 05:11:15;;;;;;;9.88;5.25;;;-0.40;99.90;;;;;;9936510;28;20031;-69
2023/02/09 05:16:08;;;;;;;15.40;6.22;;;-0.40;99.90;;;;;;9942552;28;20131;-67
2023/02/09 05:20:58;;;;;;;16.77;7.15;;;-0.40;99.90;;;;;;9929376;28;20050;-71
2023/02/09 05:25:49;;;;;;;14.52;6.82;;;-0.40;99.90;;;;;;9940532;28;20186;-69
2023/02/09 05:30:40;;;;;;;14.43;6.47;;;-0.50;99.90;;;;;;9942286;28;20493;-69
2023/02/09 05:35:31;;;;;;;13.65;6.88;;;-0.50;99.90;;;;;;9924797;28;20023;-68
2023/02/09 05:40:21;;;;;;;15.05;6.55;;;-0.50;99.90;;;;;;9940749;28;20030;-68
2023/02/09 05:45:12;;;;;;;16.08;6.72;;;-0.60;99.90;;;;;;9947027;28;20042;-69
2023/02/09 05:50:03;;;;;;;19.48;8.00;;;-0.60;99.90;;;;;;9947466;28;20034;-69
2023/02/09 05:54:54;;;;;;;14.68;7.20;;;-0.60;99.90;;;;;;9959819;28;20068;-68
2023/02/09 05:59:44;;;;;;;12.55;7.25;;;-0.70;99.90;;;;;;9933220;28;20022;-68
2023/02/09 06:04:35;;;;;;;12.00;6.18;;;-0.70;99.90;;;;;;9945805;28;20027;-67
2023/02/09 06:09:26;;;;;;;16.23;7.82;;;-0.80;99.90;;;;;;9944090;28;20109;-67
2023/02/09 06:14:17;;;;;;;12.63;7.85;;;-0.90;99.90;;;;;;9946808;28;20039;-68
2023/02/09 06:19:20;;;;;;;20.20;8.32;;;-0.90;99.90;;;;;;9947360;28;20043;-68
2023/02/09 06:24:12;;;;;;;13.82;8.10;;;-0.90;99.90;;;;;;9944904;28;20034;-68
2023/02/09 06:29:02;;;;;;;13.68;7.28;;;-0.80;99.90;;;;;;9946142;28;20226;-68
2023/02/09 06:33:53;;;;;;;22.40;9.13;;;-0.90;99.90;;;;;;9944075;28;20222;-67
2023/02/09 06:38:44;;;;;;;16.10;7.80;;;-0.80;99.90;;;;;;9944855;28;20035;-67
2023/02/09 06:43:35;;;;;;;14.52;7.43;;;-0.80;99.90;;;;;;9945805;28;20393;-67
2023/02/09 06:48:26;;;;;;;16.52;7.22;;;-0.80;99.90;;;;;;9946512;28;20481;-68
2023/02/09 06:53:17;;;;;;;14.35;6.50;;;-0.90;99.90;;;;;;9946388;28;20536;-68
2023/02/09 06:58:08;;;;;;;19.50;7.47;;;-0.90;99.90;;;;;;9957822;28;20038;-69
2023/02/09 07:02:58;;;;;;;12.10;5.85;;;-0.90;99.90;;;;;;9944368;28;20520;-67
2023/02/09 07:07:49;;;;;;;14.70;6.50;;;-0.80;99.90;;;;;;9944531;28;20031;-67
2023/02/09 07:12:42;;;;;;;16.02;7.00;;;-0.80;99.90;;;;;;9927479;28;20568;-68
2023/02/09 07:17:33;;;;;;;13.90;6.28;;;-0.70;99.90;;;;;;9942869;28;20812;-68
2023/02/09 07:22:26;;;;;;;20.67;7.07;;;-0.80;99.90;;;;;;9944451;28;20114;-66
2023/02/09 07:27:18;;;;;;;16.20;7.78;;;-0.90;99.90;;;;;;9926267;28;20031;-68
2023/02/09 07:32:09;;;;;;;15.73;6.90;;;-0.80;99.90;;;;;;9944182;28;20035;-68
2023/02/09 07:37:00;;;;;;;15.48;7.63;;;-0.70;99.90;;;;;;9942632;28;20023;-62
2023/02/09 07:41:51;;;;;;;18.40;6.93;;;-0.70;99.90;;;;;;9942705;28;20069;-68
2023/02/09 07:46:41;;;;;;;14.77;7.35;;;-0.60;99.90;;;;;;9942336;28;20113;-65
2023/02/09 07:51:32;;;;;;;12.38;6.30;;;-0.60;99.90;;;;;;9936145;28;20042;-64
2023/02/09 07:56:24;;;;;;;17.23;8.25;;;-0.70;99.90;;;;;;9942963;28;20477;-65
2023/02/09 08:01:16;;;;;;;18.17;7.55;;;-0.60;99.90;;;;;;9943412;28;20223;-68
2023/02/09 08:06:17;;;;;;;17.73;7.45;;;-0.60;99.90;;;;;;9931281;28;20015;-70
2023/02/09 08:11:08;;;;;;;16.45;7.97;;;-0.50;99.90;;;;;;9936725;28;20308;-69
2023/02/09 08:16:04;;;;;;;21.15;7.97;;;-0.50;99.90;;;;;;9941637;28;20124;-70
2023/02/09 08:20:55;;;;;;;12.93;7.28;;;-0.40;99.90;;;;;;9941300;28;20093;-70
2023/02/09 08:25:50;;;;;;;17.48;7.55;;;-0.40;99.90;;;;;;9926640;28;20027;-69
2023/02/09 08:30:42;;;;;;;12.02;6.97;;;-0.30;99.90;;;;;;9924921;28;20043;-68
2023/02/09 08:35:32;;;;;;;16.77;7.32;;;-0.30;99.90;;;;;;9928785;28;20469;-65
2023/02/09 08:40:23;;;;;;;16.00;6.35;;;-0.20;99.90;;;;;;9940290;28;20042;-62
2023/02/09 08:45:14;;;;;;;15.77;7.90;;;-0.10;99.90;;;;;;9939893;28;20038;-64
2023/02/09 08:50:05;;;;;;;15.88;6.95;;;0.00;99.90;;;;;;9935114;28;20027;-64
2023/02/09 08:54:56;;;;;;;20.23;7.55;;;0.10;99.90;;;;;;9938549;28;20173;-64
2023/02/09 08:59:47;;;;;;;16.40;8.63;;;0.20;99.90;;;;;;9937089;28;20506;-62
2023/02/09 09:04:38;;;;;;;15.98;7.95;;;0.40;99.90;;;;;;9940082;28;20066;-69
2023/02/09 09:09:29;;;;;;;18.92;8.55;;;0.60;99.90;;;;;;9937631;28;20035;-71
2023/02/09 09:14:20;;;;;;;22.88;8.88;;;0.60;99.90;;;;;;9939647;28;20043;-66
2023/02/09 09:19:10;;;;;;;16.25;7.80;;;0.50;99.90;;;;;;9947897;28;20149;-69
2023/02/09 09:24:01;;;;;;;18.70;8.38;;;0.50;99.90;;;;;;9953160;28;20043;-68
2023/02/09 09:28:52;;;;;;;21.42;8.85;;;0.60;99.90;;;;;;9953808;28;20037;-71
2023/02/09 09:33:43;;;;;;;22.23;10.70;;;0.90;99.90;;;;;;9942703;28;20035;-72
2023/02/09 09:38:35;;;;;;;17.90;9.27;;;0.90;99.90;;;;;;9950370;28;20042;-70
2023/02/09 09:43:37;;;;;;;22.02;10.10;;;0.80;99.90;;;;;;9951049;28;20090;-72
2023/02/09 09:48:43;;;;;;;16.65;8.32;;;0.90;99.90;;;;;;9926416;28;20043;-71
2023/02/09 09:53:36;;;;;;;25.40;11.18;;;1.10;99.90;;;;;;9944372;28;20034;-63
2023/02/09 09:58:27;;;;;;;21.05;9.93;;;1.10;99.90;;;;;;9947528;28;20046;-68
2023/02/09 10:03:20;;;;;;;26.00;10.90;;;1.30;99.90;;;;;;9947347;28;20030;-68
2023/02/09 10:08:19;;;;;;;18.38;9.13;;;1.50;99.90;;;;;;9945763;28;20029;-68
2023/02/09 10:13:23;;;;;;;25.25;11.02;;;1.60;99.90;;;;;;9931330;28;20142;-67
2023/02/09 10:18:15;;;;;;;20.20;11.32;;;1.70;99.90;;;;;;9946374;28;20121;-70
2023/02/09 10:23:14;;;;;;;27.42;11.18;;;1.80;99.90;;;;;;9946716;28;20531;-69
2023/02/09 10:28:16;;;;;;;23.88;10.90;;;1.90;99.90;;;;;;9945953;28;20393;-69
2023/02/09 10:33:14;;;;;;;23.40;10.93;;;2.20;99.90;;;;;;9945319;28;20042;-69
2023/02/09 10:38:13;;;;;;;27.45;13.90;;;2.30;99.90;;;;;;9945387;28;20521;-72
2023/02/09 10:43:26;;;;;;;25.88;11.73;;;2.40;99.90;;;;;;9944420;28;20110;-71
2023/02/09 10:48:19;;;;;;;27.38;12.25;;;2.50;99.90;;;;;;9941910;28;20026;-68
2023/02/09 10:53:39;;;;;;;21.90;9.20;;;2.60;99.90;;;;;;9944728;28;20035;-71
2023/02/09 10:58:35;;;;;;;21.65;10.93;;;2.60;99.90;;;;;;9924920;28;20070;-64
2023/02/09 11:03:25;;;;;;;23.77;9.98;;;2.60;99.90;;;;;;9945416;28;20030;-75
2023/02/09 11:08:22;;;;;;;27.20;12.52;;;2.70;99.90;;;;;;9941925;28;20031;-69
2023/02/09 11:13:25;;;;;;;25.15;11.80;;;3.00;99.90;;;;;;9926695;28;20047;-69
2023/02/09 11:18:27;;;;;;;25.63;11.88;;;3.20;99.90;;;;;;9944164;28;20054;-69
2023/02/09 11:23:59;;;;;;;24.65;10.98;;;3.20;99.90;;;;;;9913896;28;20042;-70
2023/02/09 11:29:16;;;;;;;27.33;10.57;;;3.20;99.90;;;;;;9942435;28;20015;-63
2023/02/09 11:34:31;;;;;;;25.67;11.30;;;3.30;99.90;;;;;;9941572;28;20412;-64
2023/02/09 11:39:32;;;;;;;21.85;10.35;;;3.60;99.90;;;;;;9942090;28;20269;-66
2023/02/09 11:44:55;;;;;;;22.65;11.50;;;3.70;99.90;;;;;;9942733;28;20034;-67
2023/02/09 11:49:52;;;;;;;28.08;11.63;;;3.60;99.90;;;;;;9944331;28;20931;-70
2023/02/09 11:54:46;;;;;;;23.02;12.25;;;3.70;99.90;;;;;;9935327;28;20110;-70
2023/02/09 11:59:42;;;;;;;24.05;11.63;;;3.80;99.90;;;;;;9946353;28;20442;-70
2023/02/09 12:04:46;;;;;;;22.13;9.67;;;3.90;99.90;;;;;;9942287;28;20223;-69
2023/02/09 12:09:43;;;;;;;20.45;10.57;;;4.10;99.90;;;;;;9942084;28;20073;-71
2023/02/09 12:15:01;;;;;;;30.20;13.48;;;4.30;99.90;;;;;;9941061;28;20104;-70
2023/02/09 12:20:00;;;;;;;21.92;10.65;;;4.30;99.90;;;;;;9931674;28;20030;-70
2023/02/09 12:25:21;;;;;;;26.60;11.88;;;4.20;99.90;;;;;;9921973;28;20195;-70
2023/02/09 12:30:43;;;;;;;28.75;14.07;;;4.50;99.90;;;;;;9910535;28;20156;-69
2023/02/09 12:35:39;;;;;;;23.60;11.23;;;4.60;99.90;;;;;;9938342;28;20023;-70
2023/02/09 12:40:38;;;;;;;20.95;10.88;;;4.80;99.90;;;;;;9921628;28;20094;-71
2023/02/09 12:45:43;;;;;;;27.45;13.02;;;5.10;99.90;;;;;;9940154;28;20054;-70
2023/02/09 12:50:40;;;;;;;26.90;12.90;;;5.20;99.90;;;;;;9941321;28;20046;-70
2023/02/09 12:55:30;;;;;;;30.52;12.27;;;5.20;99.90;;;;;;9946423;28;20035;-73
2023/02/09 13:00:31;;;;;;;24.83;11.02;;;5.50;99.90;;;;;;9941941;28;20397;-69
2023/02/09 13:05:22;;;;;;;24.70;10.65;;;5.70;99.90;;;;;;9939549;28;20031;-69
2023/02/09 13:10:40;;;;;;;24.58;11.07;;;5.90;99.90;;;;;;9936771;28;20022;-69
2023/02/09 13:15:54;;;;;;;22.88;13.00;;;6.10;99.90;;;;;;9937588;28;20051;-72
2023/02/09 13:21:24;;;;;;;26.10;12.75;;;6.20;99.90;;;;;;9937610;28;20089;-70
2023/02/09 13:26:27;;;;;;;23.70;11.93;;;6.20;99.90;;;;;;9906293;28;20051;-69
2023/02/09 13:31:59;;;;;;;24.42;12.18;;;6.40;99.90;;;;;;9938632;28;20027;-71
2023/02/09 13:36:56;;;;;;;25.48;13.02;;;6.50;99.90;;;;;;9890456;28;20101;-70
2023/02/09 13:41:48;;;;;;;29.05;14.90;;;6.50;99.90;;;;;;9936620;28;20584;-69
2023/02/09 13:46:39;;;;;;;27.50;13.73;;;6.40;99.90;;;;;;9938968;28;20023;-70
2023/02/09 13:51:30;;;;;;;26.90;13.13;;;6.30;99.90;;;;;;9919662;28;20497;-69
2023/02/09 13:56:21;;;;;;;26.75;13.63;;;6.30;99.90;;;;;;9936056;28;20524;-69
2023/02/09 14:01:15;;;;;;;27.95;14.38;;;6.20;99.90;;;;;;9938959;28;20034;-69
2023/02/09 14:06:16;;;;;;;22.67;12.50;;;6.20;99.90;;;;;;9944532;28;20105;-70
2023/02/09 14:11:49;;;;;;;23.45;13.52;;;6.10;99.90;;;;;;9943988;28;20454;-70
2023/02/09 14:16:39;;;;;;;25.27;12.90;;;6.20;99.90;;;;;;9825020;29;20052;-70
2023/02/09 14:21:39;;;;;;;26.38;13.75;;;6.10;99.90;;;;;;9915319;28;20074;-70
2023/02/09 14:26:52;;;;;;;19.77;11.82;;;6.10;99.90;;;;;;9942680;28;20401;-72
2023/02/09 14:31:49;;;;;;;25.23;11.82;;;6.20;99.80;;;;;;9945175;28;20019;-72
2023/02/09 14:36:51;;;;;;;25.77;11.85;;;6.10;99.80;;;;;;9944705;28;20019;-71
2023/02/09 14:42:00;;;;;;;23.00;11.07;;;6.00;99.70;;;;;;9945051;28;20606;-71
2023/02/09 14:46:57;;;;;;;21.75;10.32;;;6.00;99.70;;;;;;9943920;28;20480;-70
2023/02/09 14:51:50;;;;;;;20.10;10.35;;;5.90;99.60;;;;;;9944705;28;20038;-64
2023/02/09 14:56:41;;;;;;;22.48;9.10;;;5.90;99.50;;;;;;9946500;28;20105;-67
2023/02/09 15:01:31;;;;;;;16.23;8.20;;;5.70;99.50;;;;;;9944245;28;20066;-64
2023/02/09 15:06:25;;;;;;;20.58;8.77;;;5.70;99.40;;;;;;9944459;28;20081;-68
2023/02/09 15:16:29;;;;;;;14.73;7.78;;;5.60;99.10;;;;;;9920350;28;20057;-74
2023/02/09 15:21:20;;;;;;;17.55;7.82;;;5.60;99.00;;;;;;9943196;28;20548;-71
2023/02/09 15:26:19;;;;;;;21.27;7.97;;;5.60;98.90;;;;;;9943400;28;20031;-71
2023/02/09 15:31:13;;;;;;;15.88;8.30;;;5.70;98.80;;;;;;9942618;28;20045;-68
2023/02/09 15:36:04;;;;;;;13.85;7.50;;;5.60;98.70;;;;;;9942430;28;20034;-69
2023/02/09 15:51:15;;;;;;;16.85;8.40;;;5.50;98.40;;;;;;9942821;28;20083;-71
2023/02/09 15:56:07;;;;;;;17.58;8.45;;;5.50;98.40;;;;;;9937476;28;20069;-70
2023/02/09 16:00:57;;;;;;;16.88;8.27;;;5.50;98.30;;;;;;9930944;28;20027;-68
2023/02/09 16:05:51;;;;;;;18.17;8.68;;;5.40;98.20;;;;;;9940250;28;20125;-69
2023/02/09 16:10:41;;;;;;;19.88;7.95;;;5.30;98.30;;;;;;9911201;28;20030;-71
2023/02/09 16:15:32;;;;;;;18.17;8.32;;;5.30;98.20;;;;;;9944964;28;20050;-69
2023/02/09 16:20:23;;;;;;;24.38;9.73;;;5.20;98.10;;;;;;9944094;28;20047;-70
2023/02/09 16:25:17;;;;;;;19.40;8.23;;;5.10;98.10;;;;;;9932712;28;20031;-71
2023/02/09 16:30:24;;;;;;;15.40;7.93;;;4.90;98.00;;;;;;9932065;28;20046;-72
2023/02/09 16:35:15;;;;;;;13.25;7.53;;;4.80;98.10;;;;;;9934102;28;20025;-71
2023/02/09 16:40:31;;;;;;;20.58;8.20;;;4.70;98.00;;;;;;9936368;28;20537;-72
2023/02/09 16:45:22;;;;;;;21.48;8.32;;;4.60;98.00;;;;;;9938308;28;20039;-72
2023/02/09 16:50:38;;;;;;;18.58;7.45;;;4.50;98.00;;;;;;9937948;28;20197;-72
2023/02/09 16:55:32;;;;;;;18.67;7.95;;;4.40;98.00;;;;;;9945731;28;20547;-74
2023/02/09 17:00:35;;;;;;;19.35;9.13;;;4.40;98.00;;;;;;9942960;28;20034;-69
2023/02/09 17:05:33;;;;;;;18.80;7.13;;;4.40;98.00;;;;;;9940548;28;20500;-65
2023/02/09 17:10:27;;;;;;;20.55;8.10;;;4.30;98.00;;;;;;9939132;28;20023;-67
2023/02/09 17:15:18;;;;;;;16.60;7.72;;;4.20;98.00;;;;;;9936322;28;20077;-71
2023/02/09 17:20:16;;;;;;;16.20;8.18;;;4.20;98.00;;;;;;9936936;28;20147;-67
2023/02/09 17:25:17;;;;;;;16.75;7.63;;;4.10;98.10;;;;;;9937860;28;20053;-65
2023/02/09 17:30:10;;;;;;;19.75;9.48;;;4.10;98.10;;;;;;9938731;28;20022;-66
2023/02/09 17:35:01;;;;;;;16.58;7.50;;;4.10;98.00;;;;;;9939281;28;20019;-68
2023/02/09 17:39:52;;;;;;;19.70;8.77;;;4.00;98.00;;;;;;9926968;28;20441;-66
2023/02/09 17:44:42;;;;;;;19.75;8.02;;;4.00;98.00;;;;;;9944557;28;20085;-67
2023/02/09 17:49:33;;;;;;;19.15;8.90;;;3.90;98.00;;;;;;9946107;28;20101;-69
2023/02/09 17:54:24;;;;;;;22.50;8.13;;;3.90;98.10;;;;;;9947919;28;20565;-69
2023/02/09 17:59:18;;;;;;;14.50;7.93;;;3.90;98.10;;;;;;9939477;28;20410;-69
2023/02/09 18:04:16;;;;;;;20.83;8.77;;;3.90;98.10;;;;;;9938691;28;20022;-71
2023/02/09 18:09:09;;;;;;;17.80;8.82;;;3.90;98.20;;;;;;9939447;28;20105;-67
2023/02/09 18:14:00;;;;;;;18.17;10.32;;;3.90;98.20;;;;;;9936627;28;20117;-69
2023/02/09 18:18:51;;;;;;;18.58;8.82;;;3.90;98.20;;;;;;9945660;28;20713;-71
2023/02/09 18:23:41;;;;;;;21.63;9.90;;;3.80;98.20;;;;;;9937756;28;20031;-71
2023/02/09 18:28:32;;;;;;;20.95;9.48;;;3.80;98.20;;;;;;9930487;28;20224;-71
2023/02/09 18:33:23;;;;;;;17.98;9.23;;;3.80;98.30;;;;;;9932596;28;20038;-69
2023/02/09 18:38:14;;;;;;;22.48;10.13;;;3.80;98.40;;;;;;9945781;28;20027;-70
2023/02/09 18:43:06;;;;;;;25.10;10.38;;;3.80;98.50;;;;;;9931568;28;20490;-71
2023/02/09 18:47:58;;;;;;;25.55;11.45;;;3.70;98.50;;;;;;9943653;28;20465;-71
2023/02/09 18:52:51;;;;;;;22.20;10.27;;;3.70;98.60;;;;;;9944759;28;20033;-70
2023/02/09 18:57:42;;;;;;;25.38;9.20;;;3.70;98.60;;;;;;9952688;28;20023;-72
2023/02/09 19:02:32;;;;;;;25.35;10.65;;;3.60;98.60;;;;;;9913583;28;20556;-70
2023/02/09 19:07:24;;;;;;;22.20;10.90;;;3.60;98.70;;;;;;9946035;28;20023;-64
2023/02/09 19:12:14;;;;;;;21.30;10.93;;;3.50;98.70;;;;;;9942773;28;20034;-69
2023/02/09 19:17:08;;;;;;;25.67;11.13;;;3.50;98.80;;;;;;9925121;28;20039;-67
2023/02/09 19:21:59;;;;;;;27.80;12.27;;;3.50;98.80;;;;;;9943509;28;20043;-69
2023/02/09 19:26:49;;;;;;;24.00;11.43;;;3.50;98.80;;;;;;9943370;28;20041;-71
2023/02/09 19:31:40;;;;;;;31.98;12.82;;;3.50;98.90;;;;;;9926296;28;20061;-70
2023/02/09 19:36:32;;;;;;;25.80;11.18;;;3.50;99.10;;;;;;9941980;28;20050;-68
2023/02/09 19:41:24;;;;;;;29.02;13.98;;;3.50;99.10;;;;;;9942316;28;20097;-67
2023/02/09 19:46:15;;;;;;;24.85;11.35;;;3.60;99.20;;;;;;9943146;28;20454;-70
2023/02/09 19:51:06;;;;;;;28.00;13.45;;;3.50;99.20;;;;;;9943705;28;20129;-70
2023/02/09 19:55:56;;;;;;;38.60;14.57;;;3.40;99.40;;;;;;9955377;28;20019;-71
2023/02/09 20:00:53;;;;;;;23.05;11.82;;;3.40;99.50;;;;;;9941566;28;20030;-71
2023/02/09 20:05:45;;;;;;;29.13;12.15;;;3.30;99.60;;;;;;9920124;28;20145;-70
2023/02/09 20:10:38;;;;;;;23.85;10.15;;;3.30;99.70;;;;;;9923941;28;20093;-71
2023/02/09 20:15:28;;;;;;;30.35;13.05;;;3.20;99.80;;;;;;9938833;28;20425;-66
2023/02/09 20:20:19;;;;;;;24.30;12.70;;;3.10;99.90;;;;;;9937756;28;20031;-69
2023/02/09 20:25:12;;;;;;;29.23;11.23;;;3.00;99.90;;;;;;9942597;28;20031;-66
2023/02/09 20:30:06;;;;;;;24.52;11.40;;;3.00;99.90;;;;;;9931096;28;20492;-69
2023/02/09 20:34:56;;;;;;;24.83;10.65;;;3.00;99.90;;;;;;9933488;28;20475;-63
2023/02/09 20:39:47;;;;;;;21.30;9.05;;;3.00;99.90;;;;;;9918803;28;20585;-65
2023/02/09 20:49:47;;;;;;;15.80;8.68;;;3.00;99.80;;;;;;9941129;28;20618;-72
2023/02/09 20:54:39;;;;;;;22.40;11.30;;;3.00;99.90;;;;;;9949162;28;20225;-73
2023/02/09 20:59:31;;;;;;;21.55;10.43;;;3.00;99.90;;;;;;9946293;28;20094;-72
2023/02/09 21:04:21;;;;;;;22.02;10.68;;;2.90;99.90;;;;;;9942439;28;20030;-72
2023/02/09 21:09:14;;;;;;;20.83;10.73;;;2.90;99.90;;;;;;9941607;28;20027;-72
2023/02/09 21:14:10;;;;;;;16.00;8.88;;;3.00;99.90;;;;;;9945674;28;20069;-73
2023/02/09 21:19:01;;;;;;;20.67;8.82;;;2.90;99.90;;;;;;9951460;28;20034;-74
2023/02/09 21:23:53;;;;;;;20.35;10.02;;;2.90;99.90;;;;;;9951819;28;20047;-74
2023/02/09 21:28:44;;;;;;;18.70;9.05;;;2.80;99.90;;;;;;9949884;28;20453;-73
2023/02/09 21:33:35;;;;;;;17.88;10.13;;;2.70;99.90;;;;;;9932576;28;20034;-73
2023/02/09 21:38:25;;;;;;;21.60;11.50;;;2.80;99.90;;;;;;9950618;28;20085;-73
2023/02/09 21:43:16;;;;;;;19.58;9.23;;;2.70;99.90;;;;;;9950603;28;20042;-71
2023/02/09 21:48:07;;;;;;;26.83;9.63;;;2.70;99.90;;;;;;9948731;28;20034;-70
2023/02/09 21:53:00;;;;;;;26.23;10.65;;;2.70;99.90;;;;;;9949639;28;20113;-68
2023/02/09 21:57:51;;;;;;;21.30;8.63;;;2.50;99.90;;;;;;9958816;28;20018;-73
2023/02/09 22:02:42;;;;;;;23.77;9.32;;;2.50;99.90;;;;;;9948558;28;20039;-71
2023/02/09 22:07:34;;;;;;;20.80;9.75;;;2.50;99.90;;;;;;9947393;28;20232;-66
2023/02/09 22:12:24;;;;;;;24.42;10.07;;;2.50;99.90;;;;;;9927760;28;20413;-65
2023/02/09 22:17:15;;;;;;;22.73;9.82;;;2.60;99.90;;;;;;9952598;28;20042;-69
2023/02/09 22:22:06;;;;;;;17.60;8.88;;;2.60;99.90;;;;;;9952904;28;20031;-68
2023/02/09 22:26:57;;;;;;;20.65;9.98;;;2.50;99.90;;;;;;9943525;28;20133;-66
2023/02/09 22:31:47;;;;;;;22.45;10.13;;;2.50;99.90;;;;;;9939741;28;20303;-66
2023/02/09 22:36:38;;;;;;;20.05;9.02;;;2.40;99.90;;;;;;9957419;28;20382;-66
2023/02/09 22:41:29;;;;;;;25.48;9.82;;;2.30;99.90;;;;;;9954395;28;20027;-65
2023/02/09 22:46:22;;;;;;;31.33;11.85;;;2.30;99.90;;;;;;9945698;28;20519;-65
2023/02/09 22:51:16;;;;;;;28.52;11.88;;;2.20;99.90;;;;;;9946864;28;20112;-66
2023/02/09 22:56:07;;;;;;;31.23;12.30;;;2.20;99.90;;;;;;9955416;28;20122;-65
2023/02/09 23:00:58;;;;;;;28.60;11.35;;;2.20;99.90;;;;;;9946475;28;20118;-64
2023/02/09 23:05:49;;;;;;;25.65;11.20;;;2.10;99.90;;;;;;9950949;28;20382;-67
2023/02/09 23:10:40;;;;;;;19.27;11.38;;;2.20;99.90;;;;;;9944408;28;20110;-70
2023/02/09 23:15:31;;;;;;;23.27;12.80;;;2.10;99.90;;;;;;9943991;28;20223;-67
2023/02/09 23:20:22;;;;;;;26.85;12.90;;;2.10;99.90;;;;;;9954874;28;20027;-69
2023/02/09 23:25:12;;;;;;;20.13;10.82;;;2.10;99.90;;;;;;9935441;28;20504;-65
2023/02/09 23:30:03;;;;;;;25.92;11.60;;;2.00;99.90;;;;;;9943685;28;20027;-65
2023/02/09 23:34:54;;;;;;;19.45;11.68;;;1.90;99.90;;;;;;9945970;28;20528;-64
2023/02/09 23:39:45;;;;;;;19.45;10.25;;;1.90;99.90;;;;;;9926950;28;20038;-66
2023/02/09 23:44:35;;;;;;;27.60;12.43;;;1.80;99.90;;;;;;9942909;28;20500;-67
2023/02/09 23:49:26;;;;;;;21.30;11.07;;;1.80;99.90;;;;;;9949504;28;20337;-67
2023/02/09 23:54:17;;;;;;;23.25;10.77;;;1.70;99.90;;;;;;9942710;28;20030;-65
2023/02/09 23:59:12;;;;;;;30.50;11.30;;;1.70;99.90;;;;;;9945289;28;20048;-65
